createdAt,value
2022-09-06T00:00:56.429Z,94.53
2022-09-06T00:01:57.851Z,95.74
2022-09-06T00:02:57.128Z,94.53
2022-09-06T00:03:57.660Z,95.23
2022-09-06T00:04:56.367Z,94.83
2022-09-06T00:05:56.306Z,94.93
2022-09-06T00:06:57.828Z,97.06
2022-09-06T00:07:56.317Z,94.73
2022-09-06T00:08:57.828Z,94.42
2022-09-06T00:09:56.317Z,94.42
2022-09-06T00:11:00.873Z,94.83
2022-09-06T00:11:56.265Z,95.23
2022-09-06T00:12:56.309Z,94.93
2022-09-06T00:13:57.784Z,95.94
2022-09-06T00:14:57.715Z,94.93
2022-09-06T00:16:01.258Z,95.43
2022-09-06T00:16:56.916Z,96.15
2022-09-06T00:17:58.532Z,95.13
2022-09-06T00:18:59.640Z,95.28
2022-09-06T00:19:56.195Z,95.34
2022-09-06T00:20:57.856Z,95.23
2022-09-06T00:21:58.643Z,95.94
2022-09-06T00:22:56.243Z,95.54
2022-09-06T00:23:56.145Z,96.60
2022-09-06T00:24:56.114Z,96.25
2022-09-06T00:25:57.306Z,95.58
2022-09-06T00:26:57.559Z,95.58
2022-09-06T00:27:57.282Z,95.74
2022-09-06T00:28:56.112Z,95.68
2022-09-06T00:29:49.472Z,97.26
2022-09-06T00:30:49.522Z,95.64
2022-09-06T00:31:56.062Z,96.09
2022-09-06T00:32:59.052Z,95.74
2022-09-06T00:33:59.022Z,95.48
2022-09-06T00:34:56.024Z,96.25
2022-09-06T00:35:56.057Z,96.66
2022-09-06T00:37:00.016Z,96.86
2022-09-06T00:37:55.994Z,95.23
2022-09-06T00:38:55.943Z,95.94
2022-09-06T00:39:49.427Z,96.66
2022-09-06T00:40:57.050Z,95.74
2022-09-06T00:41:57.404Z,95.28
2022-09-06T00:42:55.941Z,95.28
2022-09-06T00:44:00.789Z,95.28
2022-09-06T00:44:49.328Z,95.99
2022-09-06T00:45:55.972Z,95.58
2022-09-06T00:46:57.345Z,96.19
2022-09-06T00:47:55.962Z,95.38
2022-09-06T00:48:55.863Z,95.38
2022-09-06T00:49:57.366Z,95.58
2022-09-06T00:50:59.961Z,95.99
2022-09-06T00:51:56.969Z,95.18
2022-09-06T00:52:55.978Z,95.99
2022-09-06T00:53:56.976Z,96.30
2022-09-06T00:54:55.814Z,96.30
2022-09-06T00:55:57.334Z,95.68
2022-09-06T00:56:56.116Z,95.18
2022-09-06T00:57:58.436Z,95.38
2022-09-06T00:58:58.513Z,96.30
2022-09-06T00:59:57.269Z,95.58
2022-09-06T01:00:55.732Z,95.28
2022-09-06T01:01:56.974Z,95.79
2022-09-06T01:02:57.021Z,96.09
2022-09-06T01:03:55.747Z,96.70
2022-09-06T01:04:55.970Z,95.79
2022-09-06T01:05:56.891Z,95.28
2022-09-06T01:06:58.956Z,95.58
2022-09-06T01:07:57.219Z,96.80
2022-09-06T01:08:55.684Z,95.79
2022-09-06T01:09:56.830Z,95.58
2022-09-06T01:10:57.110Z,97.41
2022-09-06T01:11:57.207Z,95.28
2022-09-06T01:12:55.640Z,94.87
2022-09-06T01:13:57.767Z,95.38
2022-09-06T01:14:55.905Z,95.07
2022-09-06T01:15:55.622Z,97.20
2022-09-06T01:16:56.680Z,95.58
2022-09-06T01:17:55.659Z,95.07
2022-09-06T01:18:55.680Z,94.98
2022-09-06T01:19:55.573Z,94.26
2022-09-06T01:20:56.733Z,94.77
2022-09-06T01:21:55.537Z,94.67
2022-09-06T01:22:57.140Z,94.92
2022-09-06T01:23:55.572Z,95.32
2022-09-06T01:24:57.178Z,95.02
2022-09-06T01:25:55.590Z,95.63
2022-09-06T01:26:55.473Z,95.42
2022-09-06T01:27:56.934Z,95.02
2022-09-06T01:28:57.016Z,95.32
2022-09-06T01:29:55.504Z,95.73
2022-09-06T01:30:56.643Z,96.54
2022-09-06T01:31:56.994Z,95.32
2022-09-06T01:32:55.436Z,94.51
2022-09-06T01:33:55.489Z,94.41
2022-09-06T01:34:55.454Z,94.82
2022-09-06T01:35:55.355Z,94.61
2022-09-06T01:37:09.392Z,95.94
2022-09-06T01:37:55.387Z,95.42
2022-09-06T01:38:55.376Z,95.12
2022-09-06T01:40:04.081Z,95.02
2022-09-06T01:40:48.760Z,95.12
2022-09-06T01:41:55.299Z,95.63
2022-09-06T01:42:55.307Z,96.14
2022-09-06T01:43:55.310Z,95.83
2022-09-06T01:44:55.332Z,95.73
2022-09-06T01:45:55.309Z,95.63
2022-09-06T01:46:58.362Z,95.02
2022-09-06T01:47:56.826Z,94.61
2022-09-06T01:48:55.249Z,94.51
2022-09-06T01:49:56.689Z,94.82
2022-09-06T01:50:55.169Z,95.42
2022-09-06T01:51:56.650Z,95.22
2022-09-06T01:52:55.268Z,95.53
2022-09-06T01:53:55.336Z,94.92
2022-09-06T01:54:56.378Z,94.71
2022-09-06T01:55:56.749Z,96.54
2022-09-06T01:56:55.212Z,95.02
2022-09-06T01:57:56.646Z,94.41
2022-09-06T01:58:56.795Z,94.31
2022-09-06T01:59:56.651Z,94.71
2022-09-06T02:00:57.909Z,94.10
2022-09-06T02:05:30.995Z,93.80
2022-09-06T02:06:38.522Z,95.32
2022-09-06T02:07:44.542Z,93.90
2022-09-06T02:08:44.442Z,94.31
2022-09-06T02:09:42.334Z,94.10
2022-09-06T02:10:41.755Z,93.80
2022-09-06T02:11:38.482Z,94.10
2022-09-06T02:15:07.818Z,94.00
2022-09-06T02:17:28.792Z,93.70
2022-09-06T02:18:28.910Z,93.49
2022-09-06T02:19:28.770Z,93.60
2022-09-06T02:20:28.787Z,93.76
2022-09-06T02:21:28.733Z,93.76
2022-09-06T02:22:36.835Z,93.76
2022-09-06T02:23:36.959Z,93.80
2022-09-06T02:24:35.318Z,93.40
2022-09-06T02:25:35.365Z,93.35
2022-09-06T02:26:36.098Z,93.76
2022-09-06T02:27:36.964Z,93.45
2022-09-06T02:28:35.287Z,93.35
2022-09-06T02:29:35.680Z,93.05
2022-09-06T02:30:35.774Z,93.55
2022-09-06T02:31:36.842Z,93.55
2022-09-06T02:32:36.528Z,93.45
2022-09-06T02:39:18.171Z,93.15
2022-09-06T02:40:00.734Z,93.55
2022-09-06T02:40:59.553Z,93.76
2022-09-06T02:42:01.914Z,94.06
2022-09-06T02:43:01.664Z,93.86
2022-09-06T02:44:00.642Z,93.25
2022-09-06T02:45:00.781Z,93.65
2022-09-06T02:46:00.892Z,93.15
2022-09-06T02:47:00.643Z,93.25
2022-09-06T02:48:01.001Z,93.25
2022-09-06T02:48:52.697Z,93.25
2022-09-06T02:49:52.740Z,93.15
2022-09-06T02:50:59.452Z,93.05
2022-09-06T02:52:00.494Z,93.35
2022-09-06T02:52:52.678Z,93.65
2022-09-06T02:54:00.761Z,93.25
2022-09-06T02:54:59.684Z,93.55
2022-09-06T02:55:59.486Z,93.15
2022-09-06T02:56:59.380Z,93.86
2022-09-06T02:57:59.156Z,93.25
2022-09-06T02:58:59.866Z,92.74
2022-09-06T02:59:52.694Z,92.74
2022-09-06T03:00:52.659Z,93.15
2022-09-06T03:02:01.407Z,92.64
2022-09-06T03:02:59.294Z,93.55
2022-09-06T03:03:52.635Z,92.94
2022-09-06T03:04:53.094Z,92.84
2022-09-06T03:05:59.297Z,92.84
2022-09-06T03:07:01.101Z,93.05
2022-09-06T03:08:01.638Z,93.05
2022-09-06T03:18:30.577Z,92.54
2022-09-06T03:19:37.817Z,92.64
2022-09-06T03:20:37.225Z,93.00
2022-09-06T03:21:36.466Z,93.21
2022-09-06T03:22:36.601Z,93.51
2022-09-06T03:23:36.510Z,93.61
2022-09-06T03:24:35.245Z,93.51
2022-09-06T03:25:35.250Z,93.61
2022-09-06T03:26:36.816Z,93.71
2022-09-06T03:27:36.395Z,94.22
2022-09-06T03:28:28.798Z,94.12
2022-09-06T03:29:28.629Z,93.91
2022-09-06T03:30:28.681Z,93.71
2022-09-06T03:31:28.531Z,93.91
2022-09-06T03:32:28.530Z,94.83
2022-09-06T03:33:28.552Z,94.53
2022-09-06T03:34:28.502Z,94.62
2022-09-06T03:35:28.562Z,95.23
2022-09-06T03:36:28.511Z,94.83
2022-09-06T03:37:28.506Z,93.91
2022-09-06T03:38:28.613Z,94.42
2022-09-06T03:39:28.522Z,94.83
2022-09-06T03:40:28.461Z,94.73
2022-09-06T03:41:28.467Z,94.32
2022-09-06T03:42:28.430Z,94.02
2022-09-06T03:43:28.463Z,93.81
2022-09-06T03:44:28.432Z,93.91
2022-09-06T03:45:28.419Z,94.12
2022-09-06T03:46:28.405Z,94.02
2022-09-06T03:47:28.383Z,93.71
2022-09-06T03:48:28.578Z,93.91
2022-09-06T03:49:28.625Z,94.02
2022-09-06T03:50:28.348Z,94.53
2022-09-06T03:51:28.370Z,94.32
2022-09-06T03:52:28.329Z,95.84
2022-09-06T03:53:28.348Z,94.83
2022-09-06T03:54:35.039Z,94.32
2022-09-06T03:55:28.651Z,94.62
2022-09-06T03:56:28.400Z,95.03
2022-09-06T03:57:28.463Z,94.67
2022-09-06T03:58:28.427Z,94.77
2022-09-06T03:59:28.288Z,94.87
2022-09-06T04:00:28.227Z,94.87
2022-09-06T04:01:28.299Z,95.07
2022-09-06T04:02:28.273Z,95.18
2022-09-06T04:03:28.215Z,95.07
2022-09-06T04:04:28.191Z,95.18
2022-09-06T04:05:28.181Z,95.18
2022-09-06T04:06:28.172Z,95.28
2022-09-06T04:07:28.194Z,95.38
2022-09-06T04:08:28.269Z,95.38
2022-09-06T04:09:28.175Z,96.19
2022-09-06T04:10:28.140Z,95.68
2022-09-06T04:11:28.165Z,95.58
2022-09-06T04:12:28.521Z,95.38
2022-09-06T04:13:28.310Z,96.90
2022-09-06T04:14:28.112Z,95.58
2022-09-06T04:15:28.086Z,95.28
2022-09-06T04:16:28.178Z,95.48
2022-09-06T04:17:28.321Z,95.79
2022-09-06T04:18:28.272Z,96.03
2022-09-06T04:19:28.085Z,96.14
2022-09-06T04:20:28.042Z,96.23
2022-09-06T04:21:28.048Z,96.34
2022-09-06T04:22:28.020Z,96.64
2022-09-06T04:23:27.999Z,96.64
2022-09-06T04:24:28.016Z,96.23
2022-09-06T04:25:27.984Z,96.54
2022-09-06T04:26:27.965Z,96.54
2022-09-06T04:27:27.958Z,96.64
2022-09-06T04:28:28.199Z,97.05
2022-09-06T04:29:27.935Z,97.45
2022-09-06T04:30:27.935Z,97.25
2022-09-06T04:31:27.966Z,96.84
2022-09-06T04:32:27.888Z,96.84
2022-09-06T04:33:27.930Z,96.84
2022-09-06T04:34:27.868Z,96.95
2022-09-06T04:35:27.864Z,96.95
2022-09-06T04:36:27.869Z,97.05
2022-09-06T04:37:27.846Z,97.05
2022-09-06T04:38:28.009Z,97.15
2022-09-06T04:40:00.621Z,97.05
2022-09-06T07:07:34.396Z,97.24
2022-09-06T07:08:00.366Z,97.19
2022-09-06T07:08:59.773Z,95.87
2022-09-06T07:10:59.711Z,97.29
2022-09-06T07:12:00.425Z,97.19
2022-09-06T07:13:02.474Z,96.74
2022-09-06T07:13:59.653Z,96.84
2022-09-06T07:14:59.641Z,96.13
2022-09-06T07:15:59.695Z,96.34
2022-09-06T07:16:59.641Z,96.19
2022-09-06T07:18:02.922Z,95.28
2022-09-06T07:18:59.607Z,95.58
2022-09-06T07:20:15.979Z,96.19
2022-09-06T07:21:39.822Z,96.25
2022-09-06T07:22:04.288Z,94.63
2022-09-06T07:24:07.926Z,94.93
2022-09-06T07:24:59.616Z,95.14
2022-09-06T07:26:00.383Z,94.28
2022-09-06T07:32:51.993Z,92.82
2022-09-06T07:33:55.635Z,93.08
2022-09-06T07:34:52.777Z,93.38
2022-09-06T07:35:52.780Z,93.38
2022-09-06T07:36:52.754Z,92.58
2022-09-06T07:37:54.669Z,92.47
2022-09-06T07:38:52.745Z,93.38
2022-09-06T07:39:52.794Z,93.65
2022-09-06T07:40:52.703Z,93.54
2022-09-06T07:41:52.680Z,93.24
2022-09-06T07:42:52.688Z,92.63
2022-09-06T07:43:52.701Z,92.03
2022-09-06T07:44:54.801Z,91.83
2022-09-06T07:45:52.761Z,92.63
2022-09-06T07:46:52.848Z,91.58
2022-09-06T07:57:24.764Z,92.05
2022-09-06T07:58:23.835Z,90.64
2022-09-06T07:59:23.726Z,90.94
2022-09-06T08:00:23.696Z,91.04
2022-09-06T08:01:23.754Z,90.84
2022-09-06T08:02:23.781Z,90.73
2022-09-06T08:03:24.747Z,90.64
2022-09-06T08:04:23.697Z,90.94
2022-09-06T08:06:22.750Z,91.04
2022-09-06T08:07:40.120Z,91.85
2022-09-06T08:09:23.633Z,90.33
2022-09-06T08:10:24.341Z,92.00
2022-09-06T08:11:23.905Z,91.09
2022-09-06T08:12:24.298Z,91.70
2022-09-06T08:13:24.260Z,91.30
2022-09-06T08:14:25.413Z,90.49
2022-09-06T08:15:23.687Z,90.19
2022-09-06T08:26:47.173Z,89.00
2022-09-06T08:27:49.748Z,89.56
2022-09-06T08:28:45.849Z,89.86
2022-09-06T08:29:47.563Z,89.26
2022-09-06T08:30:46.293Z,89.66
2022-09-06T08:31:46.409Z,88.95
2022-09-06T08:32:53.815Z,90.22
2022-09-06T08:33:46.326Z,88.61
2022-09-06T08:34:46.912Z,90.02
2022-09-06T08:35:46.259Z,88.07
2022-09-06T08:36:46.993Z,88.17
2022-09-06T08:37:46.230Z,88.17
2022-09-06T08:38:46.946Z,88.32
2022-09-06T08:39:46.373Z,87.32
2022-09-06T08:40:50.048Z,86.18
2022-09-06T08:51:44.440Z,86.85
2022-09-06T08:53:00.113Z,84.11
2022-09-06T08:53:45.478Z,85.31
2022-09-06T08:54:53.587Z,85.82
2022-09-06T08:55:45.794Z,85.61
2022-09-06T08:56:45.351Z,85.77
2022-09-06T08:57:45.200Z,85.37
2022-09-06T08:58:45.866Z,85.53
2022-09-06T08:59:45.480Z,81.93
2022-09-06T09:00:45.218Z,81.83
2022-09-06T09:01:45.188Z,83.59
2022-09-06T09:02:45.174Z,82.99
2022-09-06T09:03:45.152Z,82.65
2022-09-06T09:04:45.459Z,80.55
2022-09-06T09:05:45.114Z,81.85
2022-09-06T09:06:45.129Z,81.25
2022-09-06T09:07:45.095Z,82.21
2022-09-06T09:08:45.105Z,82.11
2022-09-06T09:09:45.068Z,81.71
2022-09-06T09:10:45.109Z,81.12
2022-09-06T09:11:45.900Z,81.41
2022-09-06T09:12:45.057Z,80.62
2022-09-06T09:13:45.261Z,80.51
2022-09-06T09:14:45.023Z,80.91
2022-09-06T09:15:45.148Z,82.01
2022-09-06T09:16:45.019Z,81.21
2022-09-06T09:17:44.997Z,81.41
2022-09-06T09:18:45.014Z,81.31
2022-09-06T09:19:44.987Z,81.41
2022-09-06T09:20:45.108Z,81.51
2022-09-06T09:21:44.927Z,82.71
2022-09-06T09:22:44.939Z,83.31
2022-09-06T09:23:44.931Z,81.61
2022-09-06T09:24:44.946Z,82.21
2022-09-06T09:25:44.923Z,84.11
2022-09-06T09:26:44.906Z,81.51
2022-09-06T09:27:44.877Z,82.67
2022-09-06T09:28:48.439Z,83.47
2022-09-06T09:30:49.523Z,82.51
2022-09-06T09:31:44.899Z,81.92
2022-09-06T09:32:45.377Z,82.21
2022-09-06T09:33:51.577Z,82.11
2022-09-06T09:34:47.742Z,82.61
2022-09-06T09:35:44.025Z,83.45
2022-09-06T09:37:49.292Z,81.61
2022-09-06T09:38:44.781Z,81.92
2022-09-06T09:39:44.896Z,81.51
2022-09-06T09:40:45.087Z,81.43
2022-09-06T09:41:44.923Z,81.00
2022-09-06T09:42:44.763Z,78.59
2022-09-06T09:43:52.690Z,74.93
2022-09-06T09:44:48.898Z,73.67
2022-09-06T09:45:46.527Z,72.74
2022-09-06T09:46:44.957Z,71.97
2022-09-06T09:47:51.691Z,71.08
2022-09-06T09:48:45.129Z,72.57
2022-09-06T09:49:44.655Z,73.20
2022-09-06T09:50:45.531Z,72.44
2022-09-06T09:51:44.696Z,72.80
2022-09-06T09:52:49.327Z,68.60
2022-09-06T09:56:19.361Z,72.41
2022-09-06T09:57:20.405Z,74.69
2022-09-06T09:58:20.302Z,73.43
2022-09-06T09:59:20.395Z,74.52
2022-09-06T10:00:20.262Z,73.93
2022-09-06T10:01:20.220Z,72.74
2022-09-06T10:02:24.240Z,74.43
2022-09-06T10:03:20.286Z,74.73
2022-09-06T10:20:45.702Z,78.99
2022-09-06T10:21:46.664Z,79.58
2022-09-06T10:22:46.585Z,80.29
2022-09-06T11:21:06.432Z,84.67
2022-09-06T11:21:34.797Z,83.97
2022-09-06T11:22:34.466Z,86.81
2022-09-06T11:23:41.237Z,86.11
2022-09-06T11:24:34.444Z,86.71
2022-09-06T11:25:34.869Z,87.81
2022-09-06T11:27:37.883Z,87.21
2022-09-06T11:27:42.752Z,87.01
2022-09-06T11:28:42.729Z,86.61
2022-09-06T11:29:49.471Z,86.31
2022-09-06T11:30:42.828Z,87.51
2022-09-06T11:32:42.697Z,88.15
2022-09-06T11:33:42.701Z,87.85
2022-09-06T11:34:49.358Z,88.05
2022-09-06T11:35:44.040Z,88.05
2022-09-06T11:44:23.513Z,87.66
2022-09-06T11:45:25.149Z,85.47
2022-09-06T11:46:25.240Z,86.27
2022-09-06T11:47:24.398Z,85.87
2022-09-06T11:48:24.377Z,87.46
2022-09-06T11:49:25.800Z,86.93
2022-09-06T11:50:25.289Z,86.47
2022-09-06T11:51:24.387Z,86.33
2022-09-06T11:52:24.383Z,84.93
2022-09-06T11:53:24.430Z,85.83
2022-09-06T11:54:24.286Z,84.23
2022-09-06T11:55:24.296Z,84.23
2022-09-06T11:56:24.291Z,85.63
2022-09-06T11:57:25.104Z,86.93
2022-09-06T11:58:24.543Z,85.33
2022-09-06T11:59:24.303Z,84.29
2022-09-06T12:00:24.247Z,83.79
2022-09-06T12:01:24.271Z,85.19
2022-09-06T12:02:24.401Z,82.69
2022-09-06T12:04:25.156Z,80.60
2022-09-06T12:05:24.236Z,81.16
2022-09-06T12:06:24.215Z,77.97
2022-09-06T12:07:30.014Z,75.78
2022-09-06T12:08:24.406Z,74.77
2022-09-06T12:09:24.195Z,75.37
2022-09-06T12:10:24.164Z,75.78
2022-09-06T12:11:24.149Z,78.83
2022-09-06T12:12:24.153Z,79.93
2022-09-06T12:13:24.464Z,82.06
2022-09-06T12:14:24.149Z,81.16
2022-09-06T12:15:24.413Z,82.15
2022-09-06T12:16:24.468Z,80.06
2022-09-06T12:29:48.324Z,79.76
2022-09-06T12:30:38.410Z,79.36
2022-09-06T12:31:38.514Z,80.96
2022-09-06T12:32:38.817Z,82.51
2022-09-06T12:33:38.378Z,80.96
2022-09-06T12:34:38.443Z,78.53
2022-09-06T12:36:38.346Z,78.23
2022-09-06T12:37:38.355Z,79.82
2022-09-06T12:38:38.310Z,80.72
2022-09-06T12:39:38.408Z,80.62
2022-09-06T12:40:38.321Z,79.99
2022-09-06T12:41:57.583Z,80.82
2022-09-06T12:43:52.839Z,80.42
2022-09-06T12:44:53.948Z,78.53
2022-09-06T12:45:52.679Z,74.64
2022-09-06T12:46:52.932Z,78.53
2022-09-06T12:47:53.853Z,79.43
2022-09-06T12:49:39.778Z,81.02
2022-09-06T12:50:04.755Z,80.02
2022-09-06T12:50:54.737Z,76.54
2022-09-06T12:51:57.289Z,76.04
2022-09-06T12:52:53.587Z,80.22
2022-09-06T12:53:55.468Z,80.16
2022-09-06T12:54:53.692Z,79.86
2022-09-06T12:55:54.501Z,81.16
2022-09-06T12:56:55.403Z,80.76
2022-09-06T12:57:54.299Z,81.16
2022-09-06T12:58:53.547Z,82.86
2022-09-06T12:59:53.540Z,82.75
2022-09-06T13:00:54.477Z,80.86
2022-09-06T13:06:36.308Z,82.26
2022-09-06T13:07:37.193Z,82.92
2022-09-06T13:08:40.855Z,82.92
2022-09-06T13:09:37.156Z,83.11
2022-09-06T13:10:38.716Z,84.70
2022-09-06T13:11:37.080Z,82.71
2022-09-06T13:12:37.076Z,85.41
2022-09-06T13:13:37.069Z,84.61
2022-09-06T13:14:37.008Z,83.21
2022-09-06T13:15:37.067Z,80.82
2022-09-06T13:16:37.021Z,80.02
2022-09-06T13:17:37.004Z,83.21
2022-09-06T13:18:36.987Z,81.62
2022-09-06T13:19:36.968Z,79.52
2022-09-06T13:20:36.972Z,79.63
2022-09-06T13:21:36.987Z,80.42
2022-09-06T13:22:36.943Z,83.11
2022-09-06T13:23:36.930Z,81.92
2022-09-06T13:24:36.938Z,84.31
2022-09-06T13:25:36.951Z,84.81
2022-09-06T13:26:36.913Z,84.91
2022-09-06T13:27:36.975Z,81.62
2022-09-06T13:28:36.893Z,82.62
2022-09-06T13:29:36.907Z,83.41
2022-09-06T13:30:36.889Z,83.51
2022-09-06T13:31:37.397Z,79.72
2022-09-06T13:32:36.848Z,81.88
2022-09-06T13:33:36.858Z,81.38
2022-09-06T13:34:36.830Z,80.08
2022-09-06T13:35:36.831Z,81.68
2022-09-06T13:36:36.793Z,80.88
2022-09-06T13:37:36.812Z,78.69
2022-09-06T13:38:36.759Z,79.69
2022-09-06T13:39:36.819Z,80.38
2022-09-06T13:40:53.835Z,81.18
2022-09-06T13:41:36.783Z,80.98
2022-09-06T13:42:36.781Z,81.88
2022-09-06T13:43:36.762Z,83.17
2022-09-06T13:44:36.719Z,83.17
2022-09-06T13:45:36.742Z,82.57
2022-09-06T13:46:36.804Z,84.17
2022-09-06T13:47:36.721Z,83.27
2022-09-06T13:48:36.771Z,84.77
2022-09-06T13:49:37.673Z,85.27
2022-09-06T13:50:36.667Z,85.36
2022-09-06T13:51:36.642Z,82.97
2022-09-06T13:52:36.644Z,83.17
2022-09-06T13:53:36.657Z,81.58
2022-09-06T13:54:36.623Z,81.68
2022-09-06T13:55:36.707Z,79.69
2022-09-06T13:56:36.603Z,77.50
2022-09-06T13:57:36.600Z,77.16
2022-09-06T13:58:36.670Z,78.85
2022-09-06T13:59:36.746Z,82.64
2022-09-06T14:00:36.737Z,81.84
2022-09-06T14:01:36.638Z,80.84
2022-09-06T14:02:36.622Z,80.35
2022-09-06T14:03:36.574Z,80.84
2022-09-06T14:04:36.578Z,80.24
2022-09-06T14:05:36.553Z,80.44
2022-09-06T14:06:37.009Z,81.84
2022-09-06T14:07:36.511Z,78.65
2022-09-06T14:08:56.194Z,77.26
2022-09-06T14:09:36.909Z,80.84
2022-09-06T14:10:36.444Z,79.35
2022-09-06T14:11:36.496Z,78.85
2022-09-06T14:12:36.416Z,77.46
2022-09-06T14:13:36.446Z,78.85
2022-09-06T14:14:36.676Z,80.24
2022-09-06T14:15:36.452Z,81.38
2022-09-06T14:16:36.378Z,82.57
2022-09-06T14:17:36.395Z,79.09
2022-09-06T14:18:36.386Z,80.88
2022-09-06T14:19:36.520Z,80.02
2022-09-06T14:20:36.358Z,80.42
2022-09-06T14:21:36.339Z,82.21
2022-09-06T14:22:36.355Z,82.62
2022-09-06T14:23:36.315Z,83.41
2022-09-06T14:24:36.326Z,82.56
2022-09-06T14:25:36.303Z,82.75
2022-09-06T14:26:36.290Z,83.75
2022-09-06T14:27:36.267Z,84.25
2022-09-06T14:28:36.275Z,82.29
2022-09-06T14:29:36.261Z,82.69
2022-09-06T14:30:36.364Z,83.00
2022-09-06T14:31:36.235Z,83.59
2022-09-06T14:32:36.213Z,84.19
2022-09-06T14:33:36.214Z,84.59
2022-09-06T14:34:36.213Z,86.72
2022-09-06T14:35:36.188Z,86.13
2022-09-06T14:36:36.195Z,85.93
2022-09-06T14:37:36.193Z,86.22
2022-09-06T14:38:36.169Z,85.72
2022-09-06T14:39:36.222Z,86.33
2022-09-06T14:40:36.152Z,86.17
2022-09-06T14:41:36.131Z,85.17
2022-09-06T14:42:36.132Z,87.07
2022-09-06T14:43:36.092Z,85.97
2022-09-06T14:44:36.130Z,85.47
2022-09-06T14:45:36.070Z,85.47
2022-09-06T14:46:36.167Z,84.47
2022-09-06T14:47:36.068Z,83.67
2022-09-06T14:48:40.256Z,85.07
2022-09-06T14:49:36.077Z,86.77
2022-09-06T14:50:36.045Z,85.47
2022-09-06T14:51:36.020Z,86.97
2022-09-06T14:52:36.037Z,83.67
2022-09-06T14:53:40.562Z,84.57
2022-09-06T14:54:36.028Z,84.47
2022-09-06T14:55:35.990Z,83.97
2022-09-06T14:56:35.969Z,85.97
2022-09-06T14:57:35.946Z,83.87
2022-09-06T14:58:35.961Z,85.37
2022-09-06T14:59:35.945Z,85.37
2022-09-06T15:00:35.950Z,86.97
2022-09-06T15:01:38.604Z,86.07
2022-09-06T15:02:35.985Z,85.57
2022-09-06T15:03:36.035Z,86.36
2022-09-06T15:04:35.922Z,86.77
2022-09-06T15:05:35.886Z,85.77
2022-09-06T15:06:35.868Z,86.07
2022-09-06T15:07:35.860Z,86.36
2022-09-06T15:08:35.851Z,84.57
2022-09-06T15:09:35.876Z,83.87
2022-09-06T15:10:35.838Z,84.87
2022-09-06T15:11:35.841Z,84.77
2022-09-06T15:12:35.820Z,85.27
2022-09-06T15:13:35.830Z,81.87
2022-09-06T15:14:35.819Z,82.87
2022-09-06T15:15:35.794Z,81.48
2022-09-06T15:16:35.790Z,80.68
2022-09-06T15:17:35.775Z,81.57
2022-09-06T15:18:35.760Z,80.68
2022-09-06T15:19:35.747Z,85.17
2022-09-06T15:20:35.722Z,87.16
2022-09-06T15:21:35.707Z,87.51
2022-09-06T15:22:35.695Z,87.81
2022-09-06T15:23:35.833Z,88.81
2022-09-06T15:24:35.694Z,88.21
2022-09-06T15:25:35.652Z,87.81
2022-09-06T15:26:35.676Z,82.75
2022-09-06T15:27:35.633Z,86.81
2022-09-06T15:28:35.656Z,87.61
2022-09-06T15:29:35.652Z,88.81
2022-09-06T15:30:36.418Z,89.01
2022-09-06T15:31:35.608Z,85.71
2022-09-06T15:32:35.607Z,85.71
2022-09-06T15:33:35.585Z,86.91
2022-09-06T15:34:35.585Z,86.77
2022-09-06T15:35:35.598Z,86.17
2022-09-06T15:36:35.569Z,87.27
2022-09-06T15:37:35.543Z,84.07
2022-09-06T15:38:35.530Z,79.97
2022-09-06T15:39:35.561Z,79.78
2022-09-06T15:40:35.508Z,78.08
2022-09-06T15:41:35.492Z,77.92
2022-09-06T15:42:35.531Z,79.52
2022-09-06T15:43:35.492Z,79.22
2022-09-06T15:44:35.497Z,79.96
2022-09-06T15:45:35.465Z,80.45
2022-09-06T15:46:35.530Z,83.15
2022-09-06T15:47:35.471Z,81.56
2022-09-06T15:49:46.603Z,77.39
2022-09-06T15:50:51.639Z,75.63
2022-09-06T15:51:47.553Z,76.43
2022-09-06T15:52:47.752Z,78.13
2022-09-06T15:54:47.777Z,75.33
2022-09-06T15:55:24.617Z,74.22
2022-09-06T15:55:52.617Z,72.63
2022-09-06T15:56:52.613Z,74.13
2022-09-06T15:57:52.642Z,79.13
2022-09-06T15:58:52.570Z,80.57
2022-09-06T15:59:52.715Z,82.17
2022-09-06T16:00:54.179Z,80.07
2022-09-06T16:01:52.647Z,81.37
2022-09-06T16:02:52.750Z,82.97
2022-09-06T16:03:52.535Z,80.30
2022-09-06T16:04:52.550Z,82.01
2022-09-06T16:06:52.526Z,83.61
2022-09-06T16:07:52.523Z,84.21
2022-09-06T16:08:52.492Z,84.35
2022-09-06T16:09:52.504Z,85.35
2022-09-06T16:10:52.498Z,85.55
2022-09-06T16:11:52.439Z,85.96
2022-09-06T16:12:52.462Z,85.69
2022-09-06T16:13:52.449Z,85.99
2022-09-06T16:14:52.454Z,85.39
2022-09-06T16:15:52.535Z,85.30
2022-09-06T16:16:53.913Z,85.69
2022-09-06T16:17:52.529Z,86.40
2022-09-06T16:18:55.975Z,86.19
2022-09-06T16:20:22.812Z,84.99
2022-09-06T16:20:52.347Z,85.39
2022-09-06T16:21:52.344Z,84.79
2022-09-06T16:22:52.325Z,84.93
2022-09-06T16:23:52.332Z,85.94
2022-09-06T16:24:52.314Z,86.24
2022-09-06T16:25:52.335Z,86.74
2022-09-06T16:27:52.357Z,86.94
2022-09-06T16:27:57.179Z,86.64
2022-09-06T16:28:57.274Z,87.44
2022-09-06T16:29:57.171Z,87.94
2022-09-06T16:30:57.304Z,87.84
2022-09-06T16:31:57.165Z,87.94
2022-09-06T16:32:57.183Z,88.44
2022-09-06T16:33:57.157Z,87.98
2022-09-06T16:34:57.197Z,88.59
2022-09-06T16:35:57.114Z,88.48
2022-09-06T16:36:58.137Z,89.09
2022-09-06T16:37:57.893Z,89.49
2022-09-06T16:38:57.133Z,89.79
2022-09-06T16:39:57.860Z,90.19
2022-09-06T16:41:04.337Z,90.39
2022-09-06T16:41:57.053Z,90.09
2022-09-06T16:42:57.053Z,90.44
2022-09-06T16:43:57.020Z,90.23
2022-09-06T16:44:57.046Z,90.23
2022-09-06T16:45:57.177Z,89.94
2022-09-06T16:46:57.050Z,90.84
2022-09-06T16:47:56.981Z,90.94
2022-09-06T16:48:57.226Z,90.53
2022-09-06T16:49:56.954Z,90.23
2022-09-06T16:50:59.023Z,89.83
2022-09-06T16:52:00.522Z,89.83
2022-09-06T16:52:58.102Z,90.23
2022-09-06T16:54:06.922Z,90.17
2022-09-06T16:57:04.542Z,90.17
2022-09-06T16:57:20.986Z,89.87
2022-09-06T16:58:15.264Z,88.37
2022-09-06T16:59:13.295Z,89.47
2022-09-06T17:01:26.813Z,89.58
2022-09-06T17:01:32.995Z,89.27
2022-09-06T17:02:31.749Z,89.87
2022-09-06T17:03:32.393Z,89.37
2022-09-06T17:04:31.923Z,89.78
2022-09-06T17:05:39.118Z,89.87
2022-09-06T17:06:40.676Z,90.17
2022-09-06T17:07:33.696Z,90.37
2022-09-06T17:08:31.628Z,90.28
2022-09-06T17:09:31.590Z,90.78
2022-09-06T17:10:32.444Z,90.37
2022-09-06T17:11:31.598Z,89.98
2022-09-06T17:12:31.586Z,90.17
2022-09-06T17:13:32.114Z,89.87
2022-09-06T17:14:31.702Z,90.08
2022-09-06T17:15:31.801Z,90.22
2022-09-06T17:16:33.263Z,90.22
2022-09-06T17:17:31.553Z,89.51
2022-09-06T17:18:31.531Z,89.62
2022-09-06T17:19:31.603Z,90.12
2022-09-06T17:20:30.827Z,89.62
2022-09-06T17:21:35.221Z,90.02
2022-09-06T17:38:13.929Z,91.31
2022-09-06T17:38:55.984Z,91.51
2022-09-06T17:39:56.592Z,91.61
2022-09-06T17:40:55.886Z,91.51
2022-09-06T17:41:55.741Z,91.61
2022-09-06T17:42:56.365Z,91.51
2022-09-06T17:43:55.979Z,91.61
2022-09-06T17:44:56.377Z,91.82
2022-09-06T17:45:55.705Z,91.91
2022-09-06T17:47:12.470Z,91.96
2022-09-06T17:47:55.555Z,92.06
2022-09-06T17:48:55.548Z,92.06
2022-09-06T17:49:55.565Z,91.35
2022-09-06T17:50:55.563Z,91.35
2022-09-06T17:51:55.530Z,91.75
2022-09-06T17:52:55.537Z,91.35
2022-09-06T17:53:56.291Z,91.86
2022-09-06T17:54:55.550Z,92.06
2022-09-06T17:55:55.515Z,91.75
2022-09-06T17:56:55.462Z,91.75
2022-09-06T17:57:55.451Z,91.46
2022-09-06T17:58:55.435Z,91.55
2022-09-06T17:59:55.429Z,91.55
2022-09-06T18:00:55.457Z,91.46
2022-09-06T18:01:55.428Z,91.35
2022-09-06T18:02:55.417Z,91.19
2022-09-06T18:03:55.481Z,91.50
2022-09-06T18:04:55.393Z,91.70
2022-09-06T18:05:55.397Z,91.60
2022-09-06T18:06:55.351Z,91.39
2022-09-06T18:07:55.407Z,91.39
2022-09-06T18:08:55.522Z,92.00
2022-09-06T18:09:55.332Z,91.50
2022-09-06T18:10:55.469Z,91.39
2022-09-06T18:11:55.318Z,91.60
2022-09-06T18:12:55.311Z,91.60
2022-09-06T18:13:55.312Z,92.00
2022-09-06T18:14:58.933Z,92.30
2022-09-06T18:15:55.315Z,92.50
2022-09-06T18:16:55.276Z,91.30
2022-09-06T18:17:55.240Z,91.80
2022-09-06T18:18:55.270Z,91.90
2022-09-06T18:19:56.206Z,92.71
2022-09-06T18:20:56.762Z,92.30
2022-09-06T18:21:55.319Z,92.10
2022-09-06T18:22:55.200Z,92.20
2022-09-06T18:23:55.179Z,92.30
2022-09-06T18:24:58.314Z,89.89
2022-09-06T18:25:55.174Z,91.19
2022-09-06T18:26:55.130Z,89.79
2022-09-06T18:27:55.137Z,90.19